createdAt,value
2018-07-31T00:00:02.267Z,23.09
2018-07-31T00:01:02.267Z,22.9
2018-07-31T00:02:02.015Z,22.86
2018-07-31T00:03:02.262Z,22.95
2018-07-31T00:04:02.013Z,22.82
2018-07-31T00:05:02.263Z,22.85
2018-07-31T00:06:02.260Z,22.82
2018-07-31T00:07:02.260Z,22.79
2018-07-31T00:08:02.259Z,22.85
2018-07-31T00:09:02.006Z,22.79
2018-07-31T00:10:02.012Z,22.86
2018-07-31T00:11:02.257Z,22.82
2018-07-31T00:12:02.256Z,22.82
2018-07-31T00:13:02.250Z,22.76
2018-07-31T00:14:02.248Z,22.75
2018-07-31T00:15:02.001Z,22.75
2018-07-31T00:16:01.998Z,22.73
2018-07-31T00:17:01.995Z,22.73
2018-07-31T00:18:02.244Z,22.77
2018-07-31T00:19:01.995Z,22.8
2018-07-31T00:20:02.252Z,22.82
2018-07-31T00:21:01.991Z,22.83
2018-07-31T00:22:02.244Z,22.79
2018-07-31T00:23:01.987Z,22.83
2018-07-31T00:24:02.242Z,22.8
2018-07-31T00:25:02.236Z,22.85
2018-07-31T00:26:01.985Z,22.77
2018-07-31T00:27:01.986Z,22.72
2018-07-31T00:28:02.236Z,22.68
2018-07-31T00:29:02.233Z,22.7
2018-07-31T00:30:01.981Z,22.75
2018-07-31T00:31:01.725Z,22.73
2018-07-31T00:32:01.976Z,22.72
2018-07-31T00:33:02.229Z,22.72
2018-07-31T00:34:02.236Z,22.75
2018-07-31T00:35:02.220Z,22.7
2018-07-31T00:36:01.970Z,22.68
2018-07-31T00:37:02.221Z,22.67
2018-07-31T00:38:02.220Z,22.68
2018-07-31T00:39:02.222Z,22.62
2018-07-31T00:40:02.218Z,22.54
2018-07-31T00:41:02.269Z,22.52
2018-07-31T00:42:02.213Z,22.65
2018-07-31T00:43:01.965Z,22.57
2018-07-31T00:44:02.211Z,22.58
2018-07-31T00:45:02.215Z,22.49
2018-07-31T00:46:02.212Z,22.55
2018-07-31T00:47:02.204Z,22.49
2018-07-31T00:48:02.211Z,22.47
2018-07-31T00:49:01.951Z,22.49
2018-07-31T00:50:02.203Z,22.46
2018-07-31T00:51:02.199Z,22.45
2018-07-31T00:52:02.200Z,22.49
2018-07-31T00:53:02.195Z,22.49
2018-07-31T00:54:02.195Z,22.43
2018-07-31T00:55:02.197Z,22.47
2018-07-31T00:56:02.198Z,22.47
2018-07-31T00:57:02.192Z,22.39
2018-07-31T00:58:01.942Z,22.45
2018-07-31T00:59:02.189Z,22.36
2018-07-31T01:00:02.195Z,22.31
2018-07-31T01:01:02.183Z,22.39
2018-07-31T01:02:02.195Z,22.35
2018-07-31T01:03:02.181Z,22.39
2018-07-31T01:04:02.183Z,22.22
2018-07-31T01:05:02.177Z,22.27
2018-07-31T01:06:02.183Z,22.2
2018-07-31T01:07:02.175Z,22.22
2018-07-31T01:08:02.174Z,22.21
2018-07-31T01:09:02.173Z,22.25
2018-07-31T01:10:02.174Z,22.22
2018-07-31T01:11:02.345Z,22.18
2018-07-31T01:12:01.920Z,22.15
2018-07-31T01:13:02.170Z,22.15
2018-07-31T01:14:02.195Z,22.14
2018-07-31T01:15:02.166Z,22.09
2018-07-31T01:16:02.164Z,22.1
2018-07-31T01:17:02.162Z,22.1
2018-07-31T01:18:02.163Z,22.15
2018-07-31T01:19:02.157Z,22.12
2018-07-31T01:20:02.155Z,22.07
2018-07-31T01:21:02.154Z,22.09
2018-07-31T01:22:02.153Z,22
2018-07-31T01:23:02.155Z,22
2018-07-31T01:24:02.148Z,21.99
2018-07-31T01:25:02.150Z,21.94
2018-07-31T01:26:02.147Z,21.92
2018-07-31T01:27:02.144Z,21.96
2018-07-31T01:28:02.147Z,21.84
2018-07-31T01:29:02.140Z,21.84
2018-07-31T01:30:02.138Z,21.8
2018-07-31T01:31:02.137Z,21.74
2018-07-31T01:32:02.136Z,21.72
2018-07-31T01:33:01.885Z,21.69
2018-07-31T01:34:02.133Z,21.62
2018-07-31T01:35:02.129Z,21.61
2018-07-31T01:36:02.136Z,21.64
2018-07-31T01:37:02.126Z,21.67
2018-07-31T01:38:02.126Z,21.61
2018-07-31T01:39:02.131Z,21.53
2018-07-31T01:40:02.127Z,21.61
2018-07-31T01:41:02.126Z,21.53
2018-07-31T01:42:01.866Z,21.61
2018-07-31T01:43:01.862Z,21.59
2018-07-31T01:44:02.121Z,21.58
2018-07-31T01:45:02.116Z,21.46
2018-07-31T01:46:02.227Z,21.52
2018-07-31T01:47:02.117Z,21.54
2018-07-31T01:48:02.104Z,21.5
2018-07-31T01:49:02.108Z,21.56
2018-07-31T01:50:02.100Z,21.43
2018-07-31T01:51:02.098Z,21.49
2018-07-31T01:52:02.097Z,21.37
2018-07-31T01:53:02.098Z,21.31
2018-07-31T01:54:01.847Z,21.35
2018-07-31T01:55:02.095Z,21.35
2018-07-31T01:56:02.095Z,21.38
2018-07-31T01:57:02.094Z,21.34
2018-07-31T01:58:02.099Z,21.27
2018-07-31T01:59:02.087Z,21.31
2018-07-31T02:00:01.831Z,21.31
2018-07-31T02:01:01.829Z,21.16
2018-07-31T02:02:02.077Z,21.29
2018-07-31T02:03:01.824Z,21.16
2018-07-31T02:04:02.079Z,21.07
2018-07-31T02:05:02.071Z,21.14
2018-07-31T02:06:02.069Z,21.12
2018-07-31T02:07:01.839Z,21.16
2018-07-31T02:08:02.120Z,21.09
2018-07-31T02:09:02.063Z,21.1
2018-07-31T02:10:02.064Z,21.12
2018-07-31T02:11:01.808Z,21.13
2018-07-31T02:12:02.062Z,21.04
2018-07-31T02:13:02.057Z,21.03
2018-07-31T02:14:02.052Z,21.01
2018-07-31T02:15:02.052Z,21.04
2018-07-31T02:16:02.049Z,20.97
2018-07-31T02:17:02.049Z,20.99
2018-07-31T02:18:02.050Z,20.95
2018-07-31T02:19:02.047Z,20.99
2018-07-31T02:20:01.790Z,20.89
2018-07-31T02:21:02.036Z,20.97
2018-07-31T02:22:02.038Z,20.91
2018-07-31T02:23:02.032Z,20.88
2018-07-31T02:24:02.030Z,20.85
2018-07-31T02:25:02.033Z,20.84
2018-07-31T02:26:01.775Z,20.79
2018-07-31T02:27:02.025Z,20.89
2018-07-31T02:28:02.342Z,20.82
2018-07-31T02:29:01.768Z,20.82
2018-07-31T02:30:01.768Z,20.79
2018-07-31T02:31:02.019Z,20.8
2018-07-31T02:32:02.024Z,20.76
2018-07-31T02:33:02.016Z,20.82
2018-07-31T02:34:01.756Z,20.77
2018-07-31T02:35:02.009Z,20.82
2018-07-31T02:36:02.015Z,20.82
2018-07-31T02:37:02.009Z,20.84
2018-07-31T02:38:02.014Z,20.79
2018-07-31T02:39:01.746Z,20.84
2018-07-31T02:40:01.752Z,20.8
2018-07-31T02:41:01.996Z,20.89
2018-07-31T02:42:01.996Z,20.95
2018-07-31T02:43:01.993Z,20.97
2018-07-31T02:44:01.991Z,20.92
2018-07-31T02:45:01.996Z,20.92
2018-07-31T02:46:02.003Z,20.89
2018-07-31T02:47:01.791Z,20.79
2018-07-31T02:48:01.986Z,20.76
2018-07-31T02:49:01.979Z,20.89
2018-07-31T02:50:01.975Z,20.84
2018-07-31T02:51:01.982Z,20.82
2018-07-31T02:52:01.729Z,20.91
2018-07-31T02:53:02.060Z,20.91
2018-07-31T02:54:01.721Z,20.88
2018-07-31T02:55:01.964Z,20.85
2018-07-31T02:56:01.959Z,20.87
2018-07-31T02:57:01.727Z,20.82
2018-07-31T02:58:01.980Z,20.77
2018-07-31T02:59:01.954Z,20.8
2018-07-31T03:00:01.951Z,20.66
2018-07-31T03:01:01.697Z,20.77
2018-07-31T03:02:01.951Z,20.7
2018-07-31T03:03:01.710Z,20.7
2018-07-31T03:04:01.943Z,20.66
2018-07-31T03:05:01.939Z,20.69
2018-07-31T03:06:01.694Z,20.64
2018-07-31T03:07:01.933Z,20.54
2018-07-31T03:08:02.045Z,20.64
2018-07-31T03:09:01.936Z,20.62
2018-07-31T03:10:01.935Z,20.64
2018-07-31T03:11:02.010Z,20.58
2018-07-31T03:12:01.931Z,20.57
2018-07-31T03:13:01.924Z,20.57
2018-07-31T03:14:01.916Z,20.51
2018-07-31T03:15:01.663Z,20.5
2018-07-31T03:16:01.913Z,20.51
2018-07-31T03:17:01.911Z,20.54
2018-07-31T03:18:01.922Z,20.48
2018-07-31T03:19:01.652Z,20.5
2018-07-31T03:20:01.914Z,20.5
2018-07-31T03:21:01.917Z,20.55
2018-07-31T03:22:01.653Z,20.48
2018-07-31T03:23:01.642Z,20.5
2018-07-31T03:24:01.895Z,20.51
2018-07-31T03:25:01.908Z,20.55
2018-07-31T03:26:01.382Z,20.51
2018-07-31T03:27:01.896Z,20.52
2018-07-31T03:28:01.884Z,20.42
2018-07-31T03:29:01.879Z,20.5
2018-07-31T03:30:01.629Z,20.52
2018-07-31T03:31:01.622Z,20.48
2018-07-31T03:32:01.886Z,20.52
2018-07-31T03:33:01.868Z,20.5
2018-07-31T03:34:01.865Z,20.55
2018-07-31T03:35:01.867Z,20.5
2018-07-31T03:36:01.859Z,20.52
2018-07-31T03:37:01.863Z,20.51
2018-07-31T03:38:01.853Z,20.59
2018-07-31T03:39:01.855Z,20.62
2018-07-31T03:40:01.852Z,20.67
2018-07-31T03:41:01.846Z,20.62
2018-07-31T03:42:01.843Z,20.73
2018-07-31T03:43:01.845Z,20.64
2018-07-31T03:44:01.848Z,20.85
2018-07-31T03:45:01.585Z,20.87
2018-07-31T03:46:01.594Z,20.82
2018-07-31T03:47:01.579Z,20.74
2018-07-31T03:48:01.835Z,20.87
2018-07-31T03:49:01.575Z,20.92
2018-07-31T03:50:01.924Z,20.94
2018-07-31T03:51:01.571Z,20.91
2018-07-31T03:52:01.818Z,20.91
2018-07-31T03:53:01.569Z,20.94
2018-07-31T03:54:01.563Z,20.97
2018-07-31T03:55:01.815Z,20.99
2018-07-31T03:56:01.814Z,20.98
2018-07-31T03:57:01.809Z,21.01
2018-07-31T03:58:01.808Z,21.07
2018-07-31T03:59:01.802Z,21.13
2018-07-31T04:00:01.551Z,21.14
2018-07-31T04:01:01.798Z,21.25
2018-07-31T04:02:01.546Z,21.17
2018-07-31T04:03:01.798Z,21.4
2018-07-31T04:04:01.792Z,21.35
2018-07-31T04:05:01.545Z,21.53
2018-07-31T04:06:01.792Z,21.61
2018-07-31T04:07:01.783Z,21.75
2018-07-31T04:08:01.795Z,21.79
2018-07-31T04:09:01.781Z,21.99
2018-07-31T04:10:01.534Z,22.1
2018-07-31T04:11:01.525Z,22.27
2018-07-31T04:12:01.525Z,22.51
2018-07-31T04:13:01.530Z,22.58
2018-07-31T04:14:01.775Z,22.83
2018-07-31T04:15:01.782Z,22.97
2018-07-31T04:16:01.520Z,23.2
2018-07-31T04:17:02.058Z,23.36
2018-07-31T04:18:01.518Z,23.53
2018-07-31T04:19:01.518Z,23.87
2018-07-31T04:20:01.544Z,24.05
2018-07-31T04:21:01.767Z,24.18
2018-07-31T04:22:01.770Z,24.42
2018-07-31T04:23:01.767Z,24.73
2018-07-31T04:24:01.767Z,24.98
2018-07-31T04:25:01.766Z,25.06
2018-07-31T04:26:01.514Z,25.42
2018-07-31T04:27:01.768Z,25.52
2018-07-31T04:28:01.772Z,25.72
2018-07-31T04:29:01.768Z,25.92
2018-07-31T04:30:01.860Z,26.06
2018-07-31T04:31:01.522Z,26.36
2018-07-31T04:32:01.774Z,26.58
2018-07-31T04:33:01.775Z,26.8
2018-07-31T04:34:01.780Z,26.97
2018-07-31T04:35:01.779Z,27.27
2018-07-31T04:36:02.031Z,27.46
2018-07-31T04:37:01.534Z,27.77
2018-07-31T04:38:01.791Z,27.96
2018-07-31T04:39:01.791Z,28.22
2018-07-31T04:40:01.546Z,28.46
2018-07-31T04:41:01.798Z,28.67
2018-07-31T04:42:01.552Z,28.98
2018-07-31T04:43:01.804Z,29.12
2018-07-31T04:44:01.815Z,29.37
2018-07-31T04:45:01.824Z,29.61
2018-07-31T04:46:01.820Z,29.64
2018-07-31T04:47:01.819Z,29.74
2018-07-31T04:48:01.577Z,29.95
2018-07-31T04:49:01.833Z,30.17
2018-07-31T04:50:01.841Z,30.37
2018-07-31T04:51:01.595Z,30.45
2018-07-31T04:52:01.852Z,30.76
2018-07-31T04:53:01.854Z,31.01
2018-07-31T04:54:01.866Z,31.14
2018-07-31T04:55:01.870Z,31.36
2018-07-31T04:56:01.874Z,31.54
2018-07-31T04:57:01.882Z,31.76
2018-07-31T04:58:01.386Z,31.93
2018-07-31T04:59:01.686Z,32.13
2018-07-31T05:00:01.911Z,32.4
2018-07-31T05:01:01.657Z,32.43
2018-07-31T05:02:01.920Z,32.67
2018-07-31T05:03:01.673Z,32.79
2018-07-31T05:04:01.930Z,32.93
2018-07-31T05:05:01.940Z,33.14
2018-07-31T05:06:01.958Z,33.31
2018-07-31T05:07:01.955Z,33.5
2018-07-31T05:08:01.991Z,33.6
2018-07-31T05:09:01.719Z,33.93
2018-07-31T05:10:01.480Z,34.02
2018-07-31T05:11:01.844Z,34.08
2018-07-31T05:12:01.999Z,34.24
2018-07-31T05:13:02.015Z,34.4
2018-07-31T05:14:02.015Z,34.4
2018-07-31T05:15:02.032Z,34.49
2018-07-31T05:16:01.784Z,34.58
2018-07-31T05:17:02.043Z,34.84
2018-07-31T05:18:02.051Z,34.91
2018-07-31T05:19:01.819Z,34.99
2018-07-31T05:20:01.819Z,35.06
2018-07-31T05:21:01.830Z,35.14
2018-07-31T05:22:02.090Z,35.38
2018-07-31T05:23:02.105Z,35.53
2018-07-31T05:24:01.858Z,35.56
2018-07-31T05:25:02.118Z,35.66
2018-07-31T05:26:02.136Z,35.82
2018-07-31T05:27:02.140Z,36
2018-07-31T05:28:02.149Z,36.16
2018-07-31T05:29:02.165Z,36.25
2018-07-31T05:30:02.173Z,36.56
2018-07-31T05:31:02.187Z,36.66
2018-07-31T05:32:01.942Z,36.87
2018-07-31T05:33:02.206Z,37.02
2018-07-31T05:34:02.217Z,37.15
2018-07-31T05:35:01.977Z,37.31
2018-07-31T05:36:01.989Z,37.39
2018-07-31T05:37:02.250Z,37.49
2018-07-31T05:38:02.008Z,37.47
2018-07-31T05:39:02.272Z,37.51
2018-07-31T05:40:02.031Z,37.81
2018-07-31T05:41:02.292Z,37.91
2018-07-31T05:42:02.311Z,38
2018-07-31T05:43:02.326Z,38.09
2018-07-31T05:44:02.330Z,38.18
2018-07-31T05:45:02.347Z,38.26
2018-07-31T05:46:02.101Z,38.41
2018-07-31T05:47:02.365Z,38.42
2018-07-31T05:48:01.875Z,38.53
2018-07-31T05:49:02.389Z,38.63
2018-07-31T05:50:02.406Z,38.69
2018-07-31T05:51:02.415Z,38.71
2018-07-31T05:52:02.618Z,38.74
2018-07-31T05:53:02.189Z,38.83
2018-07-31T05:54:02.456Z,38.9
2018-07-31T05:55:02.468Z,38.91
2018-07-31T05:56:02.226Z,38.93
2018-07-31T05:57:02.491Z,39.1
2018-07-31T05:58:02.507Z,39.14
2018-07-31T05:59:02.519Z,39.21
2018-07-31T06:00:02.276Z,39.25
2018-07-31T06:01:02.543Z,39.26
2018-07-31T06:02:02.304Z,39.29
2018-07-31T06:03:02.567Z,39.4
2018-07-31T06:04:02.585Z,39.4
2018-07-31T06:05:02.596Z,39.57
2018-07-31T06:06:02.611Z,39.6
2018-07-31T06:07:02.629Z,39.69
2018-07-31T06:08:02.640Z,39.79
2018-07-31T06:09:02.650Z,39.86
2018-07-31T06:10:02.668Z,40
2018-07-31T06:11:02.676Z,40.1
2018-07-31T06:12:02.692Z,40.15
2018-07-31T06:13:02.715Z,40.18
2018-07-31T06:14:02.719Z,40.32
2018-07-31T06:15:02.734Z,40.48
2018-07-31T06:16:02.747Z,40.53
2018-07-31T06:17:02.764Z,40.54
2018-07-31T06:18:02.781Z,40.65
2018-07-31T06:19:02.794Z,40.72
2018-07-31T06:20:02.555Z,40.69
2018-07-31T06:21:02.320Z,40.91
2018-07-31T06:22:02.839Z,40.83
2018-07-31T06:23:02.849Z,40.91
2018-07-31T06:24:02.870Z,40.84
2018-07-31T06:25:02.879Z,40.83
2018-07-31T06:26:02.895Z,40.88
2018-07-31T06:27:02.739Z,41.01
2018-07-31T06:28:02.708Z,41.01
2018-07-31T06:29:02.448Z,41.1
2018-07-31T06:30:02.954Z,41.1
2018-07-31T06:31:02.973Z,41.18
2018-07-31T06:32:02.989Z,41.26
2018-07-31T06:33:03.114Z,41.37
2018-07-31T06:34:03.020Z,41.55
2018-07-31T06:35:03.030Z,41.51
2018-07-31T06:36:03.049Z,41.55
2018-07-31T06:37:03.064Z,41.63
2018-07-31T06:38:03.091Z,41.69
2018-07-31T06:39:03.098Z,41.66
2018-07-31T06:40:03.111Z,41.67
2018-07-31T06:41:02.884Z,41.76
2018-07-31T06:42:02.892Z,41.69
2018-07-31T06:43:02.911Z,41.74
2018-07-31T06:44:02.924Z,41.7
2018-07-31T06:45:02.942Z,41.8
2018-07-31T06:46:03.213Z,41.82
2018-07-31T06:47:03.228Z,41.74
2018-07-31T06:48:03.242Z,41.89
2018-07-31T06:49:03.007Z,41.8
2018-07-31T06:50:03.276Z,41.73
2018-07-31T06:51:03.047Z,41.7
2018-07-31T06:52:03.054Z,41.78
2018-07-31T06:53:03.327Z,41.69
2018-07-31T06:54:03.338Z,41.64
2018-07-31T06:55:03.353Z,41.63
2018-07-31T06:56:03.378Z,41.55
2018-07-31T06:57:03.408Z,41.55
2018-07-31T06:58:03.155Z,41.54
2018-07-31T06:59:03.419Z,41.57
2018-07-31T07:00:03.448Z,41.6
2018-07-31T07:01:03.453Z,41.66
2018-07-31T07:02:03.634Z,41.74
2018-07-31T07:03:03.487Z,41.89
2018-07-31T07:04:03.251Z,41.82
2018-07-31T07:05:03.522Z,41.69
2018-07-31T07:06:03.284Z,41.69
2018-07-31T07:07:03.553Z,41.62
2018-07-31T07:08:03.574Z,41.58
2018-07-31T07:09:03.585Z,41.54
2018-07-31T07:10:03.366Z,41.52
2018-07-31T07:11:03.621Z,41.48
2018-07-31T07:12:03.641Z,41.41
2018-07-31T07:13:03.651Z,41.28
2018-07-31T07:14:03.668Z,41.06
2018-07-31T07:15:03.692Z,40.99
2018-07-31T07:16:03.200Z,41.06
2018-07-31T07:17:03.723Z,41.07
2018-07-31T07:18:03.740Z,41.04
2018-07-31T07:19:03.755Z,41.07
2018-07-31T07:20:03.520Z,41.1
2018-07-31T07:21:03.789Z,41.14
2018-07-31T07:22:03.803Z,41.17
2018-07-31T07:23:03.821Z,41.23
2018-07-31T07:24:03.586Z,41.32
2018-07-31T07:25:03.856Z,41.28
2018-07-31T07:26:03.620Z,41.32
2018-07-31T07:27:03.895Z,41.3
2018-07-31T07:28:04.034Z,41.33
2018-07-31T07:29:03.921Z,41.13
2018-07-31T07:30:03.691Z,41.11
2018-07-31T07:31:03.709Z,41.01
2018-07-31T07:32:03.468Z,40.95
2018-07-31T07:33:03.741Z,40.84
2018-07-31T07:34:04.443Z,40.73
2018-07-31T07:35:03.772Z,40.58
2018-07-31T07:36:03.786Z,40.23
2018-07-31T07:37:03.804Z,40.12
2018-07-31T07:38:03.569Z,39.94
2018-07-31T07:39:03.586Z,39.94
2018-07-31T07:40:04.122Z,39.94
2018-07-31T07:41:03.875Z,39.92
2018-07-31T07:42:03.885Z,40.06
2018-07-31T07:43:04.158Z,40.13
2018-07-31T07:44:04.172Z,40.12
2018-07-31T07:45:04.193Z,40.06
2018-07-31T07:46:04.204Z,40.07
2018-07-31T07:47:04.224Z,40.04
2018-07-31T07:48:03.985Z,40.04
2018-07-31T07:49:04.002Z,40.04
2018-07-31T07:50:04.273Z,39.88
2018-07-31T07:51:04.287Z,39.81
2018-07-31T07:52:04.054Z,39.7
2018-07-31T07:53:04.066Z,39.63
2018-07-31T07:54:04.750Z,39.64
2018-07-31T07:55:04.115Z,39.51
2018-07-31T07:56:04.119Z,39.41
2018-07-31T07:57:04.132Z,39.17
2018-07-31T07:58:04.150Z,39.07
2018-07-31T07:59:04.174Z,39.09
2018-07-31T08:00:03.930Z,39.03
2018-07-31T08:01:04.471Z,38.86
2018-07-31T08:02:04.223Z,38.72
2018-07-31T08:03:04.231Z,38.72
2018-07-31T08:04:04.691Z,38.6
2018-07-31T08:05:04.270Z,38.5
2018-07-31T08:06:04.277Z,38.47
2018-07-31T08:07:04.044Z,38.35
2018-07-31T08:08:04.560Z,38.44
2018-07-31T08:09:04.580Z,38.32
2018-07-31T08:10:04.598Z,38.47
2018-07-31T08:11:04.609Z,38.42
2018-07-31T08:12:04.625Z,38.26
2018-07-31T08:13:04.386Z,38.11
2018-07-31T08:14:04.662Z,37.94
2018-07-31T08:15:04.657Z,37.98
2018-07-31T08:16:04.688Z,38.04
2018-07-31T08:17:04.455Z,38.06
2018-07-31T08:18:04.732Z,38.12
2018-07-31T08:19:04.486Z,38.2
2018-07-31T08:20:04.498Z,38.16
2018-07-31T08:21:04.514Z,38.16
2018-07-31T08:22:04.528Z,38.13
2018-07-31T08:23:04.798Z,38.07
2018-07-31T08:24:04.842Z,38.09
2018-07-31T08:25:04.576Z,38.03
2018-07-31T08:26:04.851Z,38.09
2018-07-31T08:27:04.859Z,38.01
2018-07-31T08:28:04.874Z,37.86
2018-07-31T08:29:04.896Z,37.91
2018-07-31T08:30:04.906Z,37.88
2018-07-31T08:31:04.929Z,37.89
2018-07-31T08:32:04.945Z,37.91
2018-07-31T08:33:04.952Z,37.94
2018-07-31T08:34:04.972Z,37.88
2018-07-31T08:35:04.988Z,37.96
2018-07-31T08:36:04.996Z,37.98
2018-07-31T08:37:04.760Z,38.04
2018-07-31T08:38:04.774Z,37.94
2018-07-31T08:39:05.053Z,37.96
2018-07-31T08:40:04.807Z,37.75
2018-07-31T08:41:05.078Z,37.82
2018-07-31T08:42:04.854Z,37.84
2018-07-31T08:43:05.116Z,37.85
2018-07-31T08:44:05.125Z,37.79
2018-07-31T08:45:05.137Z,37.79
2018-07-31T08:46:05.153Z,37.64
2018-07-31T08:47:05.170Z,37.66
2018-07-31T08:48:05.191Z,37.59
2018-07-31T08:49:05.202Z,37.47
2018-07-31T08:50:05.215Z,37.41
2018-07-31T08:51:05.281Z,37.29
2018-07-31T08:52:05.246Z,37.2
2018-07-31T08:53:05.261Z,37.03
2018-07-31T08:54:05.024Z,36.93
2018-07-31T08:55:05.063Z,36.84
2018-07-31T08:56:05.305Z,36.62
2018-07-31T08:57:05.571Z,36.54
2018-07-31T08:58:05.333Z,36.38
2018-07-31T08:59:05.092Z,36.25
2018-07-31T09:00:05.368Z,36.13
2018-07-31T09:01:05.370Z,36.05
2018-07-31T09:02:05.388Z,35.9
2018-07-31T09:03:05.408Z,35.77
2018-07-31T09:04:05.407Z,35.53
2018-07-31T09:05:05.419Z,35.41
2018-07-31T09:06:05.431Z,35.18
2018-07-31T09:07:05.449Z,34.97
2018-07-31T09:08:05.232Z,34.78
2018-07-31T09:09:05.556Z,34.62
2018-07-31T09:10:05.220Z,34.5
2018-07-31T09:11:05.487Z,34.31
2018-07-31T09:12:05.490Z,34.32
2018-07-31T09:13:05.247Z,34.3
2018-07-31T09:14:05.512Z,34.13
2018-07-31T09:15:05.271Z,34.06
2018-07-31T09:16:05.279Z,33.95
2018-07-31T09:17:05.538Z,33.88
2018-07-31T09:18:05.294Z,33.82
2018-07-31T09:19:05.305Z,33.75
2018-07-31T09:20:05.313Z,33.63
2018-07-31T09:21:05.569Z,33.42
2018-07-31T09:22:05.581Z,33.39
2018-07-31T09:23:05.591Z,33.37
2018-07-31T09:24:05.598Z,33.34
2018-07-31T09:25:05.606Z,33.34
2018-07-31T09:26:05.611Z,33.16
2018-07-31T09:27:05.617Z,33.16
2018-07-31T09:28:05.624Z,33.19
2018-07-31T09:29:05.381Z,33.15
2018-07-31T09:30:05.657Z,33.21
2018-07-31T09:31:06.362Z,33.21
2018-07-31T09:32:05.665Z,33.12
2018-07-31T09:33:05.412Z,33.16
2018-07-31T09:34:05.689Z,33.15
2018-07-31T09:35:05.427Z,33.15
2018-07-31T09:36:05.684Z,33.19
2018-07-31T09:37:05.698Z,33.14
2018-07-31T09:38:05.824Z,33.15
2018-07-31T09:39:05.205Z,33.23
2018-07-31T09:40:05.715Z,33.18
2018-07-31T09:41:05.469Z,33.18
2018-07-31T09:42:05.728Z,33.12
2018-07-31T09:43:05.741Z,33.14
2018-07-31T09:44:05.754Z,33.12
2018-07-31T09:45:05.802Z,33.18
2018-07-31T09:46:05.506Z,33.26
2018-07-31T09:47:05.769Z,33.29
2018-07-31T09:48:05.529Z,33.32
2018-07-31T09:49:05.777Z,33.19
2018-07-31T09:50:05.791Z,33.32
2018-07-31T09:51:05.544Z,33.28
2018-07-31T09:52:05.551Z,33.26
2018-07-31T09:53:05.827Z,33.31
2018-07-31T09:54:05.566Z,33.32
2018-07-31T09:55:05.833Z,33.31
2018-07-31T09:56:05.833Z,33.31
2018-07-31T09:57:05.877Z,33.32
2018-07-31T09:58:05.839Z,33.38
2018-07-31T09:59:05.994Z,33.38
2018-07-31T10:00:05.878Z,33.35
2018-07-31T10:01:05.874Z,33.29
2018-07-31T10:02:05.622Z,33.32
2018-07-31T10:03:05.880Z,33.29
2018-07-31T10:04:05.888Z,33.31
2018-07-31T10:05:05.708Z,33.32
2018-07-31T10:06:05.646Z,33.31
2018-07-31T10:07:05.910Z,33.34
2018-07-31T10:08:05.912Z,33.31
2018-07-31T10:09:05.917Z,33.37
2018-07-31T10:10:05.674Z,33.35
2018-07-31T10:11:05.936Z,33.39
2018-07-31T10:12:06.008Z,33.39
2018-07-31T10:13:05.695Z,33.41
2018-07-31T10:14:05.450Z,33.41
2018-07-31T10:15:05.960Z,33.35
2018-07-31T10:16:05.968Z,33.37
2018-07-31T10:17:05.984Z,33.37
2018-07-31T10:18:05.887Z,33.37
2018-07-31T10:19:05.990Z,33.38
2018-07-31T10:20:05.749Z,33.42
2018-07-31T10:21:05.752Z,33.45
2018-07-31T10:22:06.008Z,33.5
2018-07-31T10:23:05.764Z,33.45
2018-07-31T10:24:06.124Z,33.47
2018-07-31T10:25:06.036Z,33.53
2018-07-31T10:26:05.534Z,33.56
2018-07-31T10:27:06.046Z,33.44
2018-07-31T10:28:06.057Z,33.45
2018-07-31T10:29:05.806Z,33.45
2018-07-31T10:30:05.813Z,33.53
2018-07-31T10:31:06.207Z,33.57
2018-07-31T10:32:05.829Z,33.45
2018-07-31T10:33:05.839Z,33.51
2018-07-31T10:34:06.102Z,33.63
2018-07-31T10:35:05.852Z,33.57
2018-07-31T10:36:05.856Z,33.57
2018-07-31T10:37:05.862Z,33.59
2018-07-31T10:38:05.876Z,33.59
2018-07-31T10:39:05.885Z,33.57
2018-07-31T10:40:06.145Z,33.56
2018-07-31T10:41:06.147Z,33.65
2018-07-31T10:42:06.150Z,33.63
2018-07-31T10:43:06.161Z,33.53
2018-07-31T10:44:05.669Z,33.61
2018-07-31T10:45:05.922Z,33.57
2018-07-31T10:46:05.674Z,33.56
2018-07-31T10:47:05.937Z,33.71
2018-07-31T10:48:06.192Z,33.63
2018-07-31T10:49:06.196Z,33.63
2018-07-31T10:50:05.953Z,33.61
2018-07-31T10:51:06.017Z,33.63
2018-07-31T10:52:05.714Z,33.66
2018-07-31T10:53:06.228Z,33.6
2018-07-31T10:54:06.232Z,33.65
2018-07-31T10:55:06.492Z,33.65
2018-07-31T10:56:06.245Z,33.63
2018-07-31T10:57:06.254Z,33.65
2018-07-31T10:58:06.480Z,33.73
2018-07-31T10:59:06.267Z,33.71
2018-07-31T11:00:06.269Z,33.78
2018-07-31T11:01:06.282Z,33.78
2018-07-31T11:02:06.292Z,33.73
2018-07-31T11:03:06.476Z,33.76
2018-07-31T11:04:06.881Z,33.79
2018-07-31T11:05:06.061Z,33.76
2018-07-31T11:06:06.092Z,33.79
2018-07-31T11:07:06.333Z,33.79
2018-07-31T11:08:06.348Z,33.86
2018-07-31T11:09:06.091Z,33.82
2018-07-31T11:10:06.107Z,33.84
2018-07-31T11:11:06.349Z,33.81
2018-07-31T11:12:06.364Z,33.81
2018-07-31T11:13:06.115Z,33.97
2018-07-31T11:14:05.868Z,33.86
2018-07-31T11:15:05.878Z,33.84
2018-07-31T11:16:06.395Z,33.98
2018-07-31T11:17:06.398Z,33.95
2018-07-31T11:18:06.151Z,33.97
2018-07-31T11:19:06.438Z,33.95
2018-07-31T11:20:06.414Z,33.98
2018-07-31T11:21:06.721Z,33.93
2018-07-31T11:22:06.428Z,33.87
2018-07-31T11:23:06.185Z,33.93
2018-07-31T11:24:06.446Z,33.91
2018-07-31T11:25:06.198Z,33.94
2018-07-31T11:26:05.991Z,33.9
2018-07-31T11:27:06.212Z,34.02
2018-07-31T11:28:06.475Z,33.94
2018-07-31T11:29:06.226Z,34
2018-07-31T11:30:06.485Z,33.98
2018-07-31T11:31:06.491Z,33.98
2018-07-31T11:32:06.500Z,33.94
2018-07-31T11:33:06.660Z,33.94
2018-07-31T11:34:06.520Z,33.97
2018-07-31T11:35:06.269Z,34.03
2018-07-31T11:36:06.276Z,33.94
2018-07-31T11:37:06.535Z,33.95
2018-07-31T11:38:06.541Z,33.95
2018-07-31T11:39:06.550Z,33.93
2018-07-31T11:40:06.557Z,33.93
2018-07-31T11:41:06.310Z,33.97
2018-07-31T11:42:06.319Z,34
2018-07-31T11:43:06.333Z,34.03
2018-07-31T11:44:06.931Z,34.09
2018-07-31T11:45:06.591Z,34.12
2018-07-31T11:46:06.347Z,34.15
2018-07-31T11:47:06.356Z,34.22
2018-07-31T11:48:06.360Z,34.19
2018-07-31T11:49:06.367Z,34.17
2018-07-31T11:50:06.712Z,34.22
2018-07-31T11:51:06.381Z,34.25
2018-07-31T11:52:06.645Z,34.21
2018-07-31T11:53:06.648Z,34.19
2018-07-31T11:54:06.151Z,34.21
2018-07-31T11:55:06.672Z,34.31
2018-07-31T11:56:06.415Z,34.28
2018-07-31T11:57:06.677Z,34.31
2018-07-31T11:58:06.178Z,34.31
2018-07-31T11:59:06.185Z,34.37
2018-07-31T12:00:06.451Z,34.44
2018-07-31T12:01:06.455Z,34.37
2018-07-31T12:02:06.725Z,34.49
2018-07-31T12:03:06.215Z,34.47
2018-07-31T12:04:06.256Z,34.42
2018-07-31T12:05:06.481Z,34.47
2018-07-31T12:06:06.489Z,34.39
2018-07-31T12:07:06.497Z,34.52
2018-07-31T12:08:06.505Z,34.5
2018-07-31T12:09:06.257Z,34.53
2018-07-31T12:10:06.270Z,34.5
2018-07-31T12:11:06.783Z,34.56
2018-07-31T12:12:06.788Z,34.58
2018-07-31T12:13:06.289Z,34.58
2018-07-31T12:14:06.885Z,34.52
2018-07-31T12:15:06.559Z,34.61
2018-07-31T12:16:07.042Z,34.61
2018-07-31T12:17:06.573Z,34.65
2018-07-31T12:18:06.582Z,34.58
2018-07-31T12:19:06.932Z,34.58
2018-07-31T12:20:06.340Z,34.65
2018-07-31T12:21:06.854Z,34.69
2018-07-31T12:22:06.612Z,34.65
2018-07-31T12:23:06.614Z,34.65
2018-07-31T12:24:06.875Z,34.62
2018-07-31T12:25:06.636Z,34.52
2018-07-31T12:26:06.887Z,34.62
2018-07-31T12:27:07.192Z,34.58
2018-07-31T12:28:06.903Z,34.59
2018-07-31T12:29:06.657Z,34.56
2018-07-31T12:30:06.414Z,34.58
2018-07-31T12:31:06.923Z,34.64
2018-07-31T12:32:06.933Z,34.53
2018-07-31T12:33:06.864Z,34.65
2018-07-31T12:34:06.698Z,34.58
2018-07-31T12:35:06.955Z,34.59
2018-07-31T12:36:06.960Z,34.58
2018-07-31T12:37:06.715Z,34.61
2018-07-31T12:38:07.110Z,34.58
2018-07-31T12:39:06.489Z,34.59
2018-07-31T12:40:06.739Z,34.56
2018-07-31T12:41:06.999Z,34.61
2018-07-31T12:42:07.006Z,34.52
2018-07-31T12:43:06.759Z,34.49
2018-07-31T12:44:07.306Z,34.5
2018-07-31T12:45:06.779Z,34.46
2018-07-31T12:46:07.035Z,34.59
2018-07-31T12:47:07.041Z,34.64
2018-07-31T12:48:06.546Z,34.59
2018-07-31T12:49:07.058Z,34.61
2018-07-31T12:50:06.584Z,34.56
2018-07-31T12:51:06.818Z,34.61
2018-07-31T12:52:06.825Z,34.7
2018-07-31T12:53:07.083Z,34.7
2018-07-31T12:54:06.842Z,34.72
2018-07-31T12:55:06.849Z,34.62